sensor_id;sensor_type;location;lat;lon;timestamp;temperature;humidity
27534;DHT22;14973;51.460;7.008;2022-07-23T00:00:17;16.00;99.90
27534;DHT22;14973;51.460;7.008;2022-07-23T00:02:43;16.00;99.90
27534;DHT22;14973;51.460;7.008;2022-07-23T00:05:09;16.00;99.90
27534;DHT22;14973;51.460;7.008;2022-07-23T00:07:35;16.00;99.90
27534;DHT22;14973;51.460;7.008;2022-07-23T00:10:00;15.90;99.90
27534;DHT22;14973;51.460;7.008;2022-07-23T00:12:26;15.90;99.90
27534;DHT22;14973;51.460;7.008;2022-07-23T00:14:52;15.90;99.90
27534;DHT22;14973;51.460;7.008;2022-07-23T00:17:17;15.90;99.90
27534;DHT22;14973;51.460;7.008;2022-07-23T00:19:43;15.90;99.90
27534;DHT22;14973;51.460;7.008;2022-07-23T00:22:09;15.90;99.90
27534;DHT22;14973;51.460;7.008;2022-07-23T00:24:34;15.90;99.90
27534;DHT22;14973;51.460;7.008;2022-07-23T00:27:00;15.80;99.90
27534;DHT22;14973;51.460;7.008;2022-07-23T00:29:25;15.80;99.90
27534;DHT22;14973;51.460;7.008;2022-07-23T00:31:51;15.80;99.90
27534;DHT22;14973;51.460;7.008;2022-07-23T00:34:17;15.80;99.90
27534;DHT22;14973;51.460;7.008;2022-07-23T00:36:42;15.80;99.90
27534;DHT22;14973;51.460;7.008;2022-07-23T00:39:08;15.80;99.90
27534;DHT22;14973;51.460;7.008;2022-07-23T00:41:33;15.80;99.90
27534;DHT22;14973;51.460;7.008;2022-07-23T00:44:19;15.80;99.90
27534;DHT22;14973;51.460;7.008;2022-07-23T00:46:51;15.80;99.90
27534;DHT22;14973;51.460;7.008;2022-07-23T00:49:19;15.80;99.90
27534;DHT22;14973;51.460;7.008;2022-07-23T00:51:46;15.80;99.90
27534;DHT22;14973;51.460;7.008;2022-07-23T00:54:11;15.80;99.90
27534;DHT22;14973;51.460;7.008;2022-07-23T00:56:37;15.90;99.90
27534;DHT22;14973;51.460;7.008;2022-07-23T00:59:03;15.80;99.90
27534;DHT22;14973;51.460;7.008;2022-07-23T01:01:30;15.80;99.90
27534;DHT22;14973;51.460;7.008;2022-07-23T01:03:56;15.80;99.90
27534;DHT22;14973;51.460;7.008;2022-07-23T01:06:21;15.80;99.90
27534;DHT22;14973;51.460;7.008;2022-07-23T01:08:47;15.70;99.90
27534;DHT22;14973;51.460;7.008;2022-07-23T01:11:13;15.80;99.90
27534;DHT22;14973;51.460;7.008;2022-07-23T01:13:45;15.70;99.90
27534;DHT22;14973;51.460;7.008;2022-07-23T01:16:11;15.70;99.90
27534;DHT22;14973;51.460;7.008;2022-07-23T01:18:37;15.70;99.90
27534;DHT22;14973;51.460;7.008;2022-07-23T01:21:02;15.70;99.90
27534;DHT22;14973;51.460;7.008;2022-07-23T01:23:28;15.80;99.90
27534;DHT22;14973;51.460;7.008;2022-07-23T01:25:55;15.70;99.90
27534;DHT22;14973;51.460;7.008;2022-07-23T01:28:20;15.70;99.90
27534;DHT22;14973;51.460;7.008;2022-07-23T01:30:47;15.70;99.90
27534;DHT22;14973;51.460;7.008;2022-07-23T01:33:12;15.80;99.90
27534;DHT22;14973;51.460;7.008;2022-07-23T01:35:38;15.80;99.90
27534;DHT22;14973;51.460;7.008;2022-07-23T01:38:04;15.70;99.90
27534;DHT22;14973;51.460;7.008;2022-07-23T01:40:29;15.80;99.90
27534;DHT22;14973;51.460;7.008;2022-07-23T01:42:55;15.80;99.90
27534;DHT22;14973;51.460;7.008;2022-07-23T01:45:21;15.80;99.90
27534;DHT22;14973;51.460;7.008;2022-07-23T01:47:47;15.80;99.90
27534;DHT22;14973;51.460;7.008;2022-07-23T01:50:13;15.80;99.90
27534;DHT22;14973;51.460;7.008;2022-07-23T01:52:39;15.80;99.90
27534;DHT22;14973;51.460;7.008;2022-07-23T01:55:05;15.80;99.90
27534;DHT22;14973;51.460;7.008;2022-07-23T01:57:31;15.80;99.90
27534;DHT22;14973;51.460;7.008;2022-07-23T01:59:57;15.70;99.90
27534;DHT22;14973;51.460;7.008;2022-07-23T02:02:22;15.70;99.90
27534;DHT22;14973;51.460;7.008;2022-07-23T02:04:48;15.70;99.90
27534;DHT22;14973;51.460;7.008;2022-07-23T02:07:14;15.70;99.90
27534;DHT22;14973;51.460;7.008;2022-07-23T02:09:39;15.60;99.90
27534;DHT22;14973;51.460;7.008;2022-07-23T02:12:05;15.60;99.90
27534;DHT22;14973;51.460;7.008;2022-07-23T02:14:31;15.70;99.90
27534;DHT22;14973;51.460;7.008;2022-07-23T02:16:56;15.70;99.90
27534;DHT22;14973;51.460;7.008;2022-07-23T02:19:22;15.70;99.90
27534;DHT22;14973;51.460;7.008;2022-07-23T02:21:48;15.70;99.90
27534;DHT22;14973;51.460;7.008;2022-07-23T02:24:14;15.60;99.90
27534;DHT22;14973;51.460;7.008;2022-07-23T02:26:40;15.70;99.90
27534;DHT22;14973;51.460;7.008;2022-07-23T02:29:06;15.70;99.90
27534;DHT22;14973;51.460;7.008;2022-07-23T02:31:32;15.70;99.90
27534;DHT22;14973;51.460;7.008;2022-07-23T02:33:58;15.60;99.90
27534;DHT22;14973;51.460;7.008;2022-07-23T02:36:24;15.60;99.90
27534;DHT22;14973;51.460;7.008;2022-07-23T02:38:50;15.60;99.90
27534;DHT22;14973;51.460;7.008;2022-07-23T02:41:16;15.50;99.90
27534;DHT22;14973;51.460;7.008;2022-07-23T02:43:41;15.50;99.90
27534;DHT22;14973;51.460;7.008;2022-07-23T02:46:07;15.40;99.90
27534;DHT22;14973;51.460;7.008;2022-07-23T02:48:33;15.40;99.90
27534;DHT22;14973;51.460;7.008;2022-07-23T02:50:58;15.30;99.90
27534;DHT22;14973;51.460;7.008;2022-07-23T02:53:24;15.40;99.90
27534;DHT22;14973;51.460;7.008;2022-07-23T02:55:50;15.30;99.90
27534;DHT22;14973;51.460;7.008;2022-07-23T02:58:16;15.30;99.90
27534;DHT22;14973;51.460;7.008;2022-07-23T03:00:41;15.30;99.90
27534;DHT22;14973;51.460;7.008;2022-07-23T03:03:07;15.30;99.90
27534;DHT22;14973;51.460;7.008;2022-07-23T03:05:34;15.30;99.90
27534;DHT22;14973;51.460;7.008;2022-07-23T03:07:59;15.30;99.90
27534;DHT22;14973;51.460;7.008;2022-07-23T03:10:25;15.30;99.90
27534;DHT22;14973;51.460;7.008;2022-07-23T03:12:51;15.40;99.90
27534;DHT22;14973;51.460;7.008;2022-07-23T03:15:16;15.40;99.90
27534;DHT22;14973;51.460;7.008;2022-07-23T03:17:42;15.40;99.90
27534;DHT22;14973;51.460;7.008;2022-07-23T03:20:08;15.30;99.90
27534;DHT22;14973;51.460;7.008;2022-07-23T03:22:34;15.30;99.90
27534;DHT22;14973;51.460;7.008;2022-07-23T03:25:00;15.30;99.90
27534;DHT22;14973;51.460;7.008;2022-07-23T03:27:28;15.20;99.90
27534;DHT22;14973;51.460;7.008;2022-07-23T03:29:55;15.20;99.90
27534;DHT22;14973;51.460;7.008;2022-07-23T03:32:21;15.20;99.90
27534;DHT22;14973;51.460;7.008;2022-07-23T03:34:47;15.10;99.90
27534;DHT22;14973;51.460;7.008;2022-07-23T03:37:13;15.00;99.90
27534;DHT22;14973;51.460;7.008;2022-07-23T03:39:39;14.90;99.90
27534;DHT22;14973;51.460;7.008;2022-07-23T03:42:05;14.90;99.90
27534;DHT22;14973;51.460;7.008;2022-07-23T03:44:31;14.80;99.90
27534;DHT22;14973;51.460;7.008;2022-07-23T03:46:58;14.80;99.90
27534;DHT22;14973;51.460;7.008;2022-07-23T03:49:23;14.80;99.90
27534;DHT22;14973;51.460;7.008;2022-07-23T03:51:49;14.70;99.90
27534;DHT22;14973;51.460;7.008;2022-07-23T03:54:15;14.70;99.90
27534;DHT22;14973;51.460;7.008;2022-07-23T03:56:41;14.70;99.90
27534;DHT22;14973;51.460;7.008;2022-07-23T03:59:08;14.80;99.90
27534;DHT22;14973;51.460;7.008;2022-07-23T04:01:34;14.80;99.90
27534;DHT22;14973;51.460;7.008;2022-07-23T04:04:00;14.80;99.90
27534;DHT22;14973;51.460;7.008;2022-07-23T04:06:25;14.80;99.90
27534;DHT22;14973;51.460;7.008;2022-07-23T04:08:51;14.80;99.90
27534;DHT22;14973;51.460;7.008;2022-07-23T04:11:17;14.80;99.90
27534;DHT22;14973;51.460;7.008;2022-07-23T04:13:42;14.80;99.90
27534;DHT22;14973;51.460;7.008;2022-07-23T04:16:08;14.90;99.90
27534;DHT22;14973;51.460;7.008;2022-07-23T04:18:33;15.00;99.90
27534;DHT22;14973;51.460;7.008;2022-07-23T04:20:59;15.30;99.90
27534;DHT22;14973;51.460;7.008;2022-07-23T04:23:25;15.60;99.90
27534;DHT22;14973;51.460;7.008;2022-07-23T04:25:51;15.80;99.90
27534;DHT22;14973;51.460;7.008;2022-07-23T04:28:16;16.10;99.90
27534;DHT22;14973;51.460;7.008;2022-07-23T04:30:42;16.40;99.90
27534;DHT22;14973;51.460;7.008;2022-07-23T04:33:08;16.90;99.90
27534;DHT22;14973;51.460;7.008;2022-07-23T04:35:34;17.00;99.90
27534;DHT22;14973;51.460;7.008;2022-07-23T04:38:00;17.30;99.90
27534;DHT22;14973;51.460;7.008;2022-07-23T04:40:26;17.60;99.90
27534;DHT22;14973;51.460;7.008;2022-07-23T04:42:52;18.20;99.90
27534;DHT22;14973;51.460;7.008;2022-07-23T04:45:18;18.90;99.90
27534;DHT22;14973;51.460;7.008;2022-07-23T04:47:43;19.60;99.90
27534;DHT22;14973;51.460;7.008;2022-07-23T04:50:09;20.20;99.90
27534;DHT22;14973;51.460;7.008;2022-07-23T04:52:34;21.00;99.90
27534;DHT22;14973;51.460;7.008;2022-07-23T04:55:00;21.60;99.90
27534;DHT22;14973;51.460;7.008;2022-07-23T04:57:26;22.10;99.90
27534;DHT22;14973;51.460;7.008;2022-07-23T04:59:51;22.60;99.90
27534;DHT22;14973;51.460;7.008;2022-07-23T05:02:17;22.80;99.90
27534;DHT22;14973;51.460;7.008;2022-07-23T05:04:42;23.50;99.90
27534;DHT22;14973;51.460;7.008;2022-07-23T05:07:08;23.70;99.90
27534;DHT22;14973;51.460;7.008;2022-07-23T05:09:34;24.40;99.90
27534;DHT22;14973;51.460;7.008;2022-07-23T05:12:00;25.30;99.90
27534;DHT22;14973;51.460;7.008;2022-07-23T05:14:25;26.30;99.90
27534;DHT22;14973;51.460;7.008;2022-07-23T05:16:51;26.90;99.90
27534;DHT22;14973;51.460;7.008;2022-07-23T05:19:17;27.70;99.90
27534;DHT22;14973;51.460;7.008;2022-07-23T05:21:43;28.40;99.90
27534;DHT22;14973;51.460;7.008;2022-07-23T05:24:08;29.20;99.90
27534;DHT22;14973;51.460;7.008;2022-07-23T05:26:34;29.70;99.90
27534;DHT22;14973;51.460;7.008;2022-07-23T05:29:00;30.00;99.90
27534;DHT22;14973;51.460;7.008;2022-07-23T05:31:25;30.50;99.90
27534;DHT22;14973;51.460;7.008;2022-07-23T05:33:51;31.10;99.10
27534;DHT22;14973;51.460;7.008;2022-07-23T05:36:16;31.50;97.80
27534;DHT22;14973;51.460;7.008;2022-07-23T05:38:42;31.90;96.60
27534;DHT22;14973;51.460;7.008;2022-07-23T05:41:08;32.20;96.00
27534;DHT22;14973;51.460;7.008;2022-07-23T05:43:33;32.10;95.70
27534;DHT22;14973;51.460;7.008;2022-07-23T05:45:59;32.50;94.70
27534;DHT22;14973;51.460;7.008;2022-07-23T05:48:24;33.00;94.40
27534;DHT22;14973;51.460;7.008;2022-07-23T05:50:50;33.20;94.00
27534;DHT22;14973;51.460;7.008;2022-07-23T05:53:16;33.30;93.30
27534;DHT22;14973;51.460;7.008;2022-07-23T05:55:41;33.50;93.00
27534;DHT22;14973;51.460;7.008;2022-07-23T05:58:07;34.20;92.10
27534;DHT22;14973;51.460;7.008;2022-07-23T06:00:34;34.40;91.30
27534;DHT22;14973;51.460;7.008;2022-07-23T06:03:00;34.70;91.00
27534;DHT22;14973;51.460;7.008;2022-07-23T06:05:26;35.30;90.40
27534;DHT22;14973;51.460;7.008;2022-07-23T06:07:52;35.40;88.50
27534;DHT22;14973;51.460;7.008;2022-07-23T06:10:18;35.30;88.60
27534;DHT22;14973;51.460;7.008;2022-07-23T06:12:44;35.60;87.70
27534;DHT22;14973;51.460;7.008;2022-07-23T06:15:10;35.90;86.60
27534;DHT22;14973;51.460;7.008;2022-07-23T06:17:36;36.70;85.00
27534;DHT22;14973;51.460;7.008;2022-07-23T06:20:05;37.00;83.80
27534;DHT22;14973;51.460;7.008;2022-07-23T06:22:31;36.60;84.40
27534;DHT22;14973;51.460;7.008;2022-07-23T06:24:57;36.80;83.30
27534;DHT22;14973;51.460;7.008;2022-07-23T06:27:22;37.70;81.20
27534;DHT22;14973;51.460;7.008;2022-07-23T06:29:48;37.40;81.40
27534;DHT22;14973;51.460;7.008;2022-07-23T06:32:13;37.80;81.00
27534;DHT22;14973;51.460;7.008;2022-07-23T06:34:39;38.10;79.50
27534;DHT22;14973;51.460;7.008;2022-07-23T06:37:05;38.20;78.70
27534;DHT22;14973;51.460;7.008;2022-07-23T06:39:31;38.20;79.00
27534;DHT22;14973;51.460;7.008;2022-07-23T06:41:56;38.80;77.80
27534;DHT22;14973;51.460;7.008;2022-07-23T06:44:22;39.10;77.50
27534;DHT22;14973;51.460;7.008;2022-07-23T06:46:48;39.60;75.40
27534;DHT22;14973;51.460;7.008;2022-07-23T06:49:13;39.10;76.10
27534;DHT22;14973;51.460;7.008;2022-07-23T06:51:39;38.90;74.90
27534;DHT22;14973;51.460;7.008;2022-07-23T06:54:05;39.10;76.70
27534;DHT22;14973;51.460;7.008;2022-07-23T06:56:30;39.50;75.10
27534;DHT22;14973;51.460;7.008;2022-07-23T06:58:56;40.10;74.40
27534;DHT22;14973;51.460;7.008;2022-07-23T07:01:21;40.20;73.40
27534;DHT22;14973;51.460;7.008;2022-07-23T07:03:47;39.60;73.30
27534;DHT22;14973;51.460;7.008;2022-07-23T07:06:13;40.00;73.20
27534;DHT22;14973;51.460;7.008;2022-07-23T07:08:39;40.10;71.80
27534;DHT22;14973;51.460;7.008;2022-07-23T07:11:05;39.60;71.30
27534;DHT22;14973;51.460;7.008;2022-07-23T07:13:30;40.10;71.30
27534;DHT22;14973;51.460;7.008;2022-07-23T07:15:56;40.10;71.00
27534;DHT22;14973;51.460;7.008;2022-07-23T07:18:22;39.40;71.80
27534;DHT22;14973;51.460;7.008;2022-07-23T07:20:49;40.20;71.60
27534;DHT22;14973;51.460;7.008;2022-07-23T07:23:14;40.70;69.90
27534;DHT22;14973;51.460;7.008;2022-07-23T07:25:40;40.80;70.00
27534;DHT22;14973;51.460;7.008;2022-07-23T07:28:06;40.80;70.40
27534;DHT22;14973;51.460;7.008;2022-07-23T07:30:31;40.80;69.10
27534;DHT22;14973;51.460;7.008;2022-07-23T07:32:57;41.10;69.20
27534;DHT22;14973;51.460;7.008;2022-07-23T07:35:23;41.10;68.90
27534;DHT22;14973;51.460;7.008;2022-07-23T07:37:48;40.20;67.90
27534;DHT22;14973;51.460;7.008;2022-07-23T07:40:14;39.20;69.20
27534;DHT22;14973;51.460;7.008;2022-07-23T07:42:53;39.60;70.30
27534;DHT22;14973;51.460;7.008;2022-07-23T07:45:22;40.50;68.60
27534;DHT22;14973;51.460;7.008;2022-07-23T07:47:49;41.30;68.00
27534;DHT22;14973;51.460;7.008;2022-07-23T07:50:15;41.80;67.10
27534;DHT22;14973;51.460;7.008;2022-07-23T07:52:41;42.10;65.10
27534;DHT22;14973;51.460;7.008;2022-07-23T07:55:08;42.60;63.10
27534;DHT22;14973;51.460;7.008;2022-07-23T07:57:34;42.50;63.60
27534;DHT22;14973;51.460;7.008;2022-07-23T08:00:00;42.50;62.90
27534;DHT22;14973;51.460;7.008;2022-07-23T08:02:26;42.10;62.60
27534;DHT22;14973;51.460;7.008;2022-07-23T08:04:52;42.60;62.20
27534;DHT22;14973;51.460;7.008;2022-07-23T08:07:18;43.00;60.50
27534;DHT22;14973;51.460;7.008;2022-07-23T08:09:44;42.10;61.50
27534;DHT22;14973;51.460;7.008;2022-07-23T08:12:09;42.20;62.40
27534;DHT22;14973;51.460;7.008;2022-07-23T08:14:35;42.40;59.90
27534;DHT22;14973;51.460;7.008;2022-07-23T08:17:01;41.50;62.00
27534;DHT22;14973;51.460;7.008;2022-07-23T08:19:26;41.90;62.40
27534;DHT22;14973;51.460;7.008;2022-07-23T08:21:52;42.00;61.90
27534;DHT22;14973;51.460;7.008;2022-07-23T08:24:17;42.20;59.30
27534;DHT22;14973;51.460;7.008;2022-07-23T08:26:43;41.30;60.20
27534;DHT22;14973;51.460;7.008;2022-07-23T08:29:09;40.80;60.20
27534;DHT22;14973;51.460;7.008;2022-07-23T08:31:35;40.90;61.00
27534;DHT22;14973;51.460;7.008;2022-07-23T08:34:00;41.30;61.00
27534;DHT22;14973;51.460;7.008;2022-07-23T08:36:28;41.10;60.70
27534;DHT22;14973;51.460;7.008;2022-07-23T08:38:54;40.60;61.90
27534;DHT22;14973;51.460;7.008;2022-07-23T08:41:20;41.10;60.40
27534;DHT22;14973;51.460;7.008;2022-07-23T08:43:46;41.40;61.10
27534;DHT22;14973;51.460;7.008;2022-07-23T08:46:13;41.70;60.10
27534;DHT22;14973;51.460;7.008;2022-07-23T08:48:39;41.50;60.50
27534;DHT22;14973;51.460;7.008;2022-07-23T08:51:06;41.80;60.10
27534;DHT22;14973;51.460;7.008;2022-07-23T08:53:33;42.20;59.50
27534;DHT22;14973;51.460;7.008;2022-07-23T08:56:02;42.40;59.30
27534;DHT22;14973;51.460;7.008;2022-07-23T08:58:28;41.90;59.30
27534;DHT22;14973;51.460;7.008;2022-07-23T09:00:54;41.00;59.50
27534;DHT22;14973;51.460;7.008;2022-07-23T09:03:29;40.90;59.90
27534;DHT22;14973;51.460;7.008;2022-07-23T09:05:55;41.40;58.80
27534;DHT22;14973;51.460;7.008;2022-07-23T09:08:40;42.00;58.00
27534;DHT22;14973;51.460;7.008;2022-07-23T09:11:07;40.80;58.80
27534;DHT22;14973;51.460;7.008;2022-07-23T09:13:39;41.40;58.80
27534;DHT22;14973;51.460;7.008;2022-07-23T09:18:57;41.10;58.40
27534;DHT22;14973;51.460;7.008;2022-07-23T09:24:00;41.30;58.30
27534;DHT22;14973;51.460;7.008;2022-07-23T09:26:37;41.00;58.50
27534;DHT22;14973;51.460;7.008;2022-07-23T09:31:52;40.20;58.60
27534;DHT22;14973;51.460;7.008;2022-07-23T09:34:32;40.90;58.00
27534;DHT22;14973;51.460;7.008;2022-07-23T09:37:18;41.70;57.50
27534;DHT22;14973;51.460;7.008;2022-07-23T09:39:46;40.10;56.80
27534;DHT22;14973;51.460;7.008;2022-07-23T09:42:25;39.70;58.30
27534;DHT22;14973;51.460;7.008;2022-07-23T09:44:56;38.40;60.20
27534;DHT22;14973;51.460;7.008;2022-07-23T09:47:24;39.40;60.40
27534;DHT22;14973;51.460;7.008;2022-07-23T09:50:08;39.80;59.50
27534;DHT22;14973;51.460;7.008;2022-07-23T09:52:36;40.90;57.90
27534;DHT22;14973;51.460;7.008;2022-07-23T09:55:07;39.90;58.20
27534;DHT22;14973;51.460;7.008;2022-07-23T09:57:33;40.20;57.50
27534;DHT22;14973;51.460;7.008;2022-07-23T10:00:03;40.90;57.30
27534;DHT22;14973;51.460;7.008;2022-07-23T10:02:32;40.50;57.80
27534;DHT22;14973;51.460;7.008;2022-07-23T10:04:59;39.60;58.50
27534;DHT22;14973;51.460;7.008;2022-07-23T10:07:26;39.00;58.90
27534;DHT22;14973;51.460;7.008;2022-07-23T10:09:55;38.90;59.40
27534;DHT22;14973;51.460;7.008;2022-07-23T10:12:21;38.00;60.00
27534;DHT22;14973;51.460;7.008;2022-07-23T10:14:57;36.10;62.20
27534;DHT22;14973;51.460;7.008;2022-07-23T10:17:23;35.20;65.20
27534;DHT22;14973;51.460;7.008;2022-07-23T10:19:48;33.90;66.90
27534;DHT22;14973;51.460;7.008;2022-07-23T10:22:22;33.00;68.20
27534;DHT22;14973;51.460;7.008;2022-07-23T10:25:12;32.40;70.90
27534;DHT22;14973;51.460;7.008;2022-07-23T10:32:43;30.60;74.70
27534;DHT22;14973;51.460;7.008;2022-07-23T10:38:00;30.60;73.50
27534;DHT22;14973;51.460;7.008;2022-07-23T10:40:27;30.40;74.20
27534;DHT22;14973;51.460;7.008;2022-07-23T10:42:59;30.30;72.90
27534;DHT22;14973;51.460;7.008;2022-07-23T10:47:55;30.30;74.50
27534;DHT22;14973;51.460;7.008;2022-07-23T10:50:22;30.00;74.30
27534;DHT22;14973;51.460;7.008;2022-07-23T10:53:11;30.00;74.90
27534;DHT22;14973;51.460;7.008;2022-07-23T10:55:39;30.20;76.60
27534;DHT22;14973;51.460;7.008;2022-07-23T10:58:06;30.30;75.20
27534;DHT22;14973;51.460;7.008;2022-07-23T11:00:32;29.70;75.40
27534;DHT22;14973;51.460;7.008;2022-07-23T11:03:01;29.40;77.10
27534;DHT22;14973;51.460;7.008;2022-07-23T11:05:43;29.60;77.30
27534;DHT22;14973;51.460;7.008;2022-07-23T11:10:47;29.00;78.80
27534;DHT22;14973;51.460;7.008;2022-07-23T11:16:19;29.00;76.70
27534;DHT22;14973;51.460;7.008;2022-07-23T11:21:40;29.10;79.10
27534;DHT22;14973;51.460;7.008;2022-07-23T11:24:14;29.30;77.40
27534;DHT22;14973;51.460;7.008;2022-07-23T11:26:42;29.10;78.30
27534;DHT22;14973;51.460;7.008;2022-07-23T11:34:35;28.80;79.20
27534;DHT22;14973;51.460;7.008;2022-07-23T11:37:02;28.80;79.10
27534;DHT22;14973;51.460;7.008;2022-07-23T11:39:30;28.60;78.20
27534;DHT22;14973;51.460;7.008;2022-07-23T11:41:57;28.40;79.70
27534;DHT22;14973;51.460;7.008;2022-07-23T11:44:29;28.30;80.60
27534;DHT22;14973;51.460;7.008;2022-07-23T11:46:57;28.50;80.00
27534;DHT22;14973;51.460;7.008;2022-07-23T11:49:24;28.60;79.80
27534;DHT22;14973;51.460;7.008;2022-07-23T11:52:10;28.70;79.40
27534;DHT22;14973;51.460;7.008;2022-07-23T11:57:23;28.50;78.40
27534;DHT22;14973;51.460;7.008;2022-07-23T11:59:53;28.20;80.90
27534;DHT22;14973;51.460;7.008;2022-07-23T12:02:20;27.70;81.30
27534;DHT22;14973;51.460;7.008;2022-07-23T12:04:49;27.70;82.70
27534;DHT22;14973;51.460;7.008;2022-07-23T12:09:59;27.60;82.20
27534;DHT22;14973;51.460;7.008;2022-07-23T12:12:26;27.60;81.30
27534;DHT22;14973;51.460;7.008;2022-07-23T12:14:57;28.00;81.30
27534;DHT22;14973;51.460;7.008;2022-07-23T12:17:29;28.30;81.50
27534;DHT22;14973;51.460;7.008;2022-07-23T12:19:57;28.00;81.80
27534;DHT22;14973;51.460;7.008;2022-07-23T12:22:24;28.00;81.30
27534;DHT22;14973;51.460;7.008;2022-07-23T12:25:00;28.10;81.80
27534;DHT22;14973;51.460;7.008;2022-07-23T12:27:27;28.50;82.30
27534;DHT22;14973;51.460;7.008;2022-07-23T12:29:53;28.60;81.40
27534;DHT22;14973;51.460;7.008;2022-07-23T12:32:22;28.80;80.40
27534;DHT22;14973;51.460;7.008;2022-07-23T12:34:50;28.50;80.70
27534;DHT22;14973;51.460;7.008;2022-07-23T12:37:34;28.50;80.10
27534;DHT22;14973;51.460;7.008;2022-07-23T12:40:20;28.50;80.40
27534;DHT22;14973;51.460;7.008;2022-07-23T12:42:52;28.40;79.90
27534;DHT22;14973;51.460;7.008;2022-07-23T12:45:19;28.50;81.10
27534;DHT22;14973;51.460;7.008;2022-07-23T12:48:15;28.30;81.40
27534;DHT22;14973;51.460;7.008;2022-07-23T12:50:47;27.80;81.80
27534;DHT22;14973;51.460;7.008;2022-07-23T12:53:22;27.50;83.10
27534;DHT22;14973;51.460;7.008;2022-07-23T12:55:49;27.80;82.00
27534;DHT22;14973;51.460;7.008;2022-07-23T12:58:18;27.70;83.00
27534;DHT22;14973;51.460;7.008;2022-07-23T13:00:56;27.80;81.90
27534;DHT22;14973;51.460;7.008;2022-07-23T13:05:48;28.40;81.40
27534;DHT22;14973;51.460;7.008;2022-07-23T13:08:13;28.70;80.60
27534;DHT22;14973;51.460;7.008;2022-07-23T13:10:39;28.70;78.70
27534;DHT22;14973;51.460;7.008;2022-07-23T13:13:10;28.30;79.30
27534;DHT22;14973;51.460;7.008;2022-07-23T13:15:35;28.10;81.70
27534;DHT22;14973;51.460;7.008;2022-07-23T13:18:01;28.10;80.70
27534;DHT22;14973;51.460;7.008;2022-07-23T13:20:27;28.30;80.80
27534;DHT22;14973;51.460;7.008;2022-07-23T13:22:53;28.50;79.10
27534;DHT22;14973;51.460;7.008;2022-07-23T13:25:18;28.60;79.00
27534;DHT22;14973;51.460;7.008;2022-07-23T13:27:44;28.80;78.70
27534;DHT22;14973;51.460;7.008;2022-07-23T13:30:10;28.90;77.30
27534;DHT22;14973;51.460;7.008;2022-07-23T13:32:37;29.00;76.70
27534;DHT22;14973;51.460;7.008;2022-07-23T13:35:03;28.90;78.20
27534;DHT22;14973;51.460;7.008;2022-07-23T13:37:28;28.80;76.60
27534;DHT22;14973;51.460;7.008;2022-07-23T13:39:54;28.80;77.70
27534;DHT22;14973;51.460;7.008;2022-07-23T13:42:20;28.80;78.50
27534;DHT22;14973;51.460;7.008;2022-07-23T13:44:46;28.70;77.60
27534;DHT22;14973;51.460;7.008;2022-07-23T13:47:12;28.80;77.40
27534;DHT22;14973;51.460;7.008;2022-07-23T13:49:38;28.80;77.50
27534;DHT22;14973;51.460;7.008;2022-07-23T13:52:04;28.90;77.00
27534;DHT22;14973;51.460;7.008;2022-07-23T13:54:30;28.80;76.70
27534;DHT22;14973;51.460;7.008;2022-07-23T13:56:56;28.80;76.90
27534;DHT22;14973;51.460;7.008;2022-07-23T13:59:22;28.80;78.80
27534;DHT22;14973;51.460;7.008;2022-07-23T14:01:47;28.80;79.40
27534;DHT22;14973;51.460;7.008;2022-07-23T14:04:13;28.70;78.50
27534;DHT22;14973;51.460;7.008;2022-07-23T14:06:39;28.70;78.80
27534;DHT22;14973;51.460;7.008;2022-07-23T14:09:04;29.00;78.30
27534;DHT22;14973;51.460;7.008;2022-07-23T14:11:30;29.10;77.70
27534;DHT22;14973;51.460;7.008;2022-07-23T14:13:57;28.70;77.20
27534;DHT22;14973;51.460;7.008;2022-07-23T14:16:24;28.40;77.20
27534;DHT22;14973;51.460;7.008;2022-07-23T14:18:49;27.90;79.00
27534;DHT22;14973;51.460;7.008;2022-07-23T14:21:15;27.80;79.10
27534;DHT22;14973;51.460;7.008;2022-07-23T14:23:41;27.90;79.20
27534;DHT22;14973;51.460;7.008;2022-07-23T14:26:07;27.90;78.30
27534;DHT22;14973;51.460;7.008;2022-07-23T14:28:33;28.20;79.70
27534;DHT22;14973;51.460;7.008;2022-07-23T14:30:59;28.30;79.10
27534;DHT22;14973;51.460;7.008;2022-07-23T14:33:25;28.20;78.50
27534;DHT22;14973;51.460;7.008;2022-07-23T14:35:50;28.20;79.00
27534;DHT22;14973;51.460;7.008;2022-07-23T14:38:16;28.00;79.00
27534;DHT22;14973;51.460;7.008;2022-07-23T14:40:42;28.00;80.30
27534;DHT22;14973;51.460;7.008;2022-07-23T14:43:09;28.20;80.30
27534;DHT22;14973;51.460;7.008;2022-07-23T14:45:34;28.40;81.10
27534;DHT22;14973;51.460;7.008;2022-07-23T14:48:00;28.20;78.90
27534;DHT22;14973;51.460;7.008;2022-07-23T14:50:28;28.20;79.10
27534;DHT22;14973;51.460;7.008;2022-07-23T14:52:54;28.30;79.10
27534;DHT22;14973;51.460;7.008;2022-07-23T14:55:20;28.40;79.00
27534;DHT22;14973;51.460;7.008;2022-07-23T14:57:46;28.30;78.60
27534;DHT22;14973;51.460;7.008;2022-07-23T15:00:12;28.40;78.40
27534;DHT22;14973;51.460;7.008;2022-07-23T15:02:38;28.50;78.50
27534;DHT22;14973;51.460;7.008;2022-07-23T15:05:04;28.40;77.80
27534;DHT22;14973;51.460;7.008;2022-07-23T15:07:30;28.40;79.10
27534;DHT22;14973;51.460;7.008;2022-07-23T15:09:57;28.40;78.60
27534;DHT22;14973;51.460;7.008;2022-07-23T15:12:23;28.10;79.80
27534;DHT22;14973;51.460;7.008;2022-07-23T15:14:48;27.80;81.50
27534;DHT22;14973;51.460;7.008;2022-07-23T15:17:14;27.80;80.90
27534;DHT22;14973;51.460;7.008;2022-07-23T15:19:40;27.70;81.10
27534;DHT22;14973;51.460;7.008;2022-07-23T15:22:05;27.70;81.10
27534;DHT22;14973;51.460;7.008;2022-07-23T15:24:32;27.80;81.80
27534;DHT22;14973;51.460;7.008;2022-07-23T15:26:58;27.90;81.50
27534;DHT22;14973;51.460;7.008;2022-07-23T15:29:24;28.00;81.30
27534;DHT22;14973;51.460;7.008;2022-07-23T15:31:50;28.00;79.00
27534;DHT22;14973;51.460;7.008;2022-07-23T15:34:15;27.80;79.40
27534;DHT22;14973;51.460;7.008;2022-07-23T15:36:41;28.00;80.90
27534;DHT22;14973;51.460;7.008;2022-07-23T15:39:07;27.90;79.80
27534;DHT22;14973;51.460;7.008;2022-07-23T15:41:33;28.00;81.30
27534;DHT22;14973;51.460;7.008;2022-07-23T15:43:59;28.10;79.20
27534;DHT22;14973;51.460;7.008;2022-07-23T15:46:25;27.90;79.70
27534;DHT22;14973;51.460;7.008;2022-07-23T15:48:51;27.90;80.90
27534;DHT22;14973;51.460;7.008;2022-07-23T15:51:17;27.60;80.90
27534;DHT22;14973;51.460;7.008;2022-07-23T15:53:42;27.60;81.20
27534;DHT22;14973;51.460;7.008;2022-07-23T15:56:09;27.70;80.30
27534;DHT22;14973;51.460;7.008;2022-07-23T15:58:37;27.70;81.30
27534;DHT22;14973;51.460;7.008;2022-07-23T16:01:03;28.10;80.50
27534;DHT22;14973;51.460;7.008;2022-07-23T16:03:31;28.10;79.70
27534;DHT22;14973;51.460;7.008;2022-07-23T16:05:57;28.10;80.00
27534;DHT22;14973;51.460;7.008;2022-07-23T16:08:23;27.90;80.60